Hauptseite
METAR-TAF:

METAR-TAF

Flughäfen :

Aigen im Ennstal, Österreich

Breite: 47-32N, Länge: 014-08E, Höhe: 638 m

METAR: fehlend

Zeit: 08:56 (06:56 UTC)

Prognose

Neuester Wetterbericht von vor 1 Stunde und 41 Minuten, um 05:15 UTC
Gültige Prognose vom 07 um 06 UTC bis 07 um 15 UTC
Wind 3 kt aus unterschiedlichen Richtungen
Sichtweite: 0400 m
Aufgelockert bewölkt in der Höhe von 300 ft
Nebel
Übergehend zu
vom 07 um 07 UTC bis 07 um 09 UTC
Sichtweite 10 km oder mehr
Himmel klar
Zeitweise
vom 07 um 11 UTC bis 07 um 15 UTC
Wind 6 kt aus Nordost

TAF: LOXA 070515Z 0706/0715 VRB03KT 0400 FG SCT003 BECMG 0707/0709 9999 SKC TEMPO 0711/0715 04006KT

Wetterbeobachtungen und Prognosen von mehr als 4000 Flughäfen (METAR und TAF Bericht).

Die verfügbaren Stationen werden durch gelbe und rote Markierungen auf der Karte dargestellt.

Führen Sie die Maus auf sie, um den Namen der Station zu sehen.

Darauf klicken, um die Beobachtung von Wetterbeobachtungen und Prognosen zu sehen.

Um die Karte zu ändern : klicken Sie auf den grünen Tasten mit einem schwarzen Kreuz Zum Vergrößern, auf den grünen Button mit einem Gedankenstrich zu verkleinern, oder auf die grünen Pfeile für benachbarte Karten.


METAR-TAF: